Time;durP1;ratioP1;P1;durP2;ratioP2;P2;SDS_P1;SDS_P2;PMS_P1;PMS_P2;Temp;Humidity;BMP_temperature;BMP_pressure;BME280_temperature;BME280_humidity;BME280_pressure;Samples;Min_cycle;Max_cycle;Signal;HPM_P1;HPM_P2
2023/10/02 00:08:05;;;;;;;;;;;;;;;;;;4883356;29;20025;-84
2023/10/02 00:11:35;;;;;;;0.40;0.40;;;;;;;;;;4848988;29;19948;-83
2023/10/02 00:14:23;;;;;;;0.50;0.50;;;;;;;;;;4831029;29;20030;-83
2023/10/02 00:17:16;;;;;;;0.50;0.50;;;;;;;;;;4822876;29;20059;-82
2023/10/02 00:20:22;;;;;;;0.50;0.50;;;;;;;;;;4812567;29;20309;-84
2023/10/02 00:23:59;;;;;;;0.50;0.50;;;;;;;;;;4800379;30;20031;-84
2023/10/02 00:26:52;;;;;;;0.40;0.40;;;;;;;;;;4819921;29;20043;-86
2023/10/02 00:42:29;;;;;;;0.57;0.57;;;;;;;;;;4847974;29;20068;-85
2023/10/02 00:51:11;;;;;;;0.50;0.50;;;;;;;;;;4867432;29;19916;-82
2023/10/02 01:00:56;;;;;;;0.50;0.50;;;;;;;;;;4835904;29;20042;-84
2023/10/02 01:10:07;;;;;;;0.47;0.47;;;;;;;;;;4793549;30;20083;-81
2023/10/02 01:13:05;;;;;;;0.50;0.50;;;;;;;;;;4776061;29;20035;-82
2023/10/02 01:16:22;;;;;;;0.60;0.60;;;;;;;;;;4768423;30;20013;-83
2023/10/02 01:19:52;;;;;;;0.50;0.50;;;;;;;;;;4752497;30;20044;-83
2023/10/02 01:22:57;;;;;;;0.50;0.50;;;;;;;;;;4757311;30;20035;-82
2023/10/02 01:25:48;;;;;;;0.50;0.50;;;;;;;;;;4728282;30;20028;-82
2023/10/02 01:32:19;;;;;;;0.60;0.60;;;;;;;;;;4654547;30;20054;-83
2023/10/02 01:38:44;;;;;;;0.50;0.50;;;;;;;;;;4722774;30;20024;-82
2023/10/02 02:04:32;;;;;;;0.50;0.50;;;;;;;;;;4740264;30;20048;-84
2023/10/02 02:16:44;;;;;;;0.68;0.68;;;;;;;;;;4829323;29;19935;-83
2023/10/02 02:19:53;;;;;;;1.65;0.70;;;;;;;;;;4847767;29;20034;-83
2023/10/02 02:29:26;;;;;;;0.50;0.50;;;;;;;;;;4900451;29;20027;-82
2023/10/02 03:04:16;;;;;;;0.60;0.60;;;;;;;;;;5098950;28;20024;-85
2023/10/02 03:29:37;;;;;;;0.55;0.55;;;;;;;;;;5016784;28;20119;-83
2023/10/02 03:36:20;;;;;;;0.60;0.60;;;;;;;;;;4997820;28;20018;-84
2023/10/02 03:58:01;;;;;;;0.50;0.50;;;;;;;;;;4868434;29;20055;-82
2023/10/02 04:04:34;;;;;;;0.52;0.52;;;;;;;;;;4813449;29;20066;-82
2023/10/02 04:10:07;;;;;;;0.60;0.60;;;;;;;;;;4766784;30;20075;-83
2023/10/02 04:22:40;;;;;;;0.52;0.52;;;;;;;;;;4812825;29;20112;-84
2023/10/02 04:42:09;;;;;;;0.40;0.40;;;;;;;;;;4883154;29;20034;-81
2023/10/02 04:45:26;;;;;;;0.60;0.60;;;;;;;;;;4829315;29;20039;-82
2023/10/02 05:03:49;;;;;;;0.60;0.60;;;;;;;;;;4828826;29;20021;-81
2023/10/02 05:06:52;;;;;;;0.50;0.50;;;;;;;;;;4828707;29;20035;-82
2023/10/02 05:09:54;;;;;;;0.80;0.80;;;;;;;;;;4794818;30;20019;-81
2023/10/02 05:13:02;;;;;;;0.50;0.50;;;;;;;;;;4775160;30;20031;-82
2023/10/02 05:16:06;;;;;;;0.60;0.60;;;;;;;;;;4757941;30;20071;-82
2023/10/02 05:28:22;;;;;;;0.60;0.60;;;;;;;;;;4829557;29;20151;-82
2023/10/02 05:40:32;;;;;;;0.60;0.60;;;;;;;;;;4847524;29;19900;-82
2023/10/02 05:43:55;;;;;;;0.50;0.50;;;;;;;;;;4847487;29;20029;-83
2023/10/02 05:47:07;;;;;;;0.60;0.60;;;;;;;;;;4800707;29;20028;-82
2023/10/02 05:53:04;;;;;;;0.60;0.60;;;;;;;;;;4804459;30;20121;-82
2023/10/02 06:02:56;;;;;;;0.50;0.50;;;;;;;;;;4757618;30;20031;-82
2023/10/02 06:06:10;;;;;;;0.60;0.60;;;;;;;;;;4739557;30;20067;-83
2023/10/02 06:14:49;;;;;;;0.60;0.60;;;;;;;;;;4698792;30;20038;-82
2023/10/02 06:17:58;;;;;;;0.60;0.60;;;;;;;;;;4726544;30;20021;-82
2023/10/02 06:29:59;;;;;;;0.60;0.60;;;;;;;;;;4719261;30;20077;-81
2023/10/02 06:33:26;;;;;;;0.55;0.55;;;;;;;;;;4719642;30;20521;-80
2023/10/02 06:37:07;;;;;;;0.60;0.60;;;;;;;;;;4710354;30;20044;-80
2023/10/02 06:39:45;;;;;;;0.95;0.95;;;;;;;;;;4737860;30;20033;-81
2023/10/02 06:42:28;;;;;;;0.50;0.50;;;;;;;;;;4757489;30;20047;-81
2023/10/02 06:51:49;;;;;;;0.60;0.60;;;;;;;;;;4897668;29;20118;-81
2023/10/02 06:54:56;;;;;;;0.50;0.50;;;;;;;;;;4898731;29;20036;-82
2023/10/02 06:58:07;;;;;;;0.50;0.50;;;;;;;;;;4863115;29;20041;-83
2023/10/02 07:01:10;;;;;;;0.50;0.50;;;;;;;;;;4827317;29;20035;-82
2023/10/02 07:04:19;;;;;;;0.50;0.50;;;;;;;;;;4827432;29;20038;-80
2023/10/02 07:10:08;;;;;;;0.50;0.50;;;;;;;;;;4804090;29;20103;-83
2023/10/02 07:13:24;;;;;;;0.60;0.60;;;;;;;;;;4791520;30;20424;-81
2023/10/02 07:16:37;;;;;;;0.50;0.50;;;;;;;;;;4802868;29;20054;-81
2023/10/02 07:19:39;;;;;;;0.40;0.40;;;;;;;;;;4789583;30;20455;-81
2023/10/02 07:38:41;;;;;;;0.50;0.50;;;;;;;;;;4664976;30;20046;-82
2023/10/02 07:44:13;;;;;;;0.60;0.60;;;;;;;;;;4670818;30;20042;-79
2023/10/02 07:46:41;;;;;;;0.50;0.50;;;;;;;;;;4650739;31;20055;-80
2023/10/02 07:49:32;;;;;;;0.50;0.50;;;;;;;;;;4633568;31;20124;-80
2023/10/02 07:52:38;;;;;;;0.40;0.40;;;;;;;;;;4638093;31;20047;-86
2023/10/02 07:58:19;;;;;;;0.60;0.60;;;;;;;;;;4623338;31;20117;-86
2023/10/02 08:12:35;;;;;;;0.40;0.40;;;;;;;;;;5078633;28;20039;-88
2023/10/02 08:15:32;;;;;;;0.40;0.40;;;;;;;;;;5015023;28;20056;-87
2023/10/02 08:18:55;;;;;;;0.50;0.50;;;;;;;;;;5039564;28;20017;-87
2023/10/02 08:21:04;;;;;;;0.40;0.40;;;;;;;;;;5013195;28;20042;-86
2023/10/02 08:23:31;;;;;;;0.50;0.50;;;;;;;;;;5039381;28;20006;-85
2023/10/02 08:26:02;;;;;;;0.40;0.40;;;;;;;;;;5002664;28;20140;-88
2023/10/02 08:28:43;;;;;;;0.50;0.50;;;;;;;;;;4999949;28;20046;-87
2023/10/02 08:31:47;;;;;;;0.40;0.40;;;;;;;;;;5013828;28;20045;-89
2023/10/02 08:34:38;;;;;;;0.40;0.40;;;;;;;;;;5000564;28;20031;-87
2023/10/02 08:37:36;;;;;;;0.40;0.40;;;;;;;;;;4999976;28;20046;-89
2023/10/02 08:48:19;;;;;;;0.40;0.40;;;;;;;;;;5391923;22;20061;-89
2023/10/02 09:06:49;;;;;;;0.50;0.50;;;;;;;;;;5119506;28;20022;-85
2023/10/02 09:10:05;;;;;;;0.40;0.40;;;;;;;;;;5117691;28;20039;-85
2023/10/02 09:31:43;;;;;;;0.82;0.82;;;512.60;2278.40;;;;;;5038038;28;20041;-86
2023/10/02 09:38:06;;;;;;;0.50;0.50;;;537.60;2252.80;;;;;;4941528;28;20048;-88
2023/10/02 09:44:21;;;;;;;0.40;0.40;;;512.90;2201.60;;;;;;4960353;29;20027;-87
2023/10/02 09:47:32;;;;;;;0.50;0.50;;;512.90;2201.60;;;;;;4946344;29;20027;-85
2023/10/02 09:51:26;;;;;;;0.40;0.40;;;537.60;2201.60;;;;;;4939470;29;20032;-85
2023/10/02 09:57:49;;;;;;;0.40;0.40;;;538.20;2124.80;;;;;;4842391;29;20085;-87
2023/10/02 10:11:10;;;;;;;0.50;0.50;;;;;;;;;;4915982;29;20037;-81
2023/10/02 10:13:46;;;;;;;0.40;0.40;;;;;;;;;;4917387;29;20044;-80
2023/10/02 10:16:20;;;;;;;0.47;0.47;;;;;;;;;;4931124;29;20064;-80
2023/10/02 10:28:09;;;;;;;0.40;0.40;;;;;;;;;;5055815;28;20036;-82
2023/10/02 10:31:20;;;;;;;0.40;0.40;;;;;;;;;;5072746;28;20029;-85
2023/10/02 10:33:56;;;;;;;0.40;0.40;;;;;;;;;;5072962;28;20062;-84
2023/10/02 10:36:46;;;;;;;0.40;0.40;;;;;;;;;;5072137;28;20013;-82
2023/10/02 10:40:40;;;;;;;0.40;0.40;;;;;;;;;;5072181;28;20113;-79
2023/10/02 10:43:12;;;;;;;0.40;0.40;;;;;;;;;;4976603;28;20024;-82
2023/10/02 10:46:12;;;;;;;0.30;0.30;;;;;;;;;;4974125;29;20058;-80
2023/10/02 10:49:24;;;;;;;0.38;0.38;;;;;;;;;;4967642;28;20054;-81
2023/10/02 10:52:44;;;;;;;0.40;0.40;;;;;;;;;;5000330;28;20043;-84
2023/10/02 10:55:39;;;;;;;0.30;0.30;;;;;;;;;;4973452;28;20039;-83
2023/10/02 10:58:47;;;;;;;0.30;0.30;;;;;;;;;;4934530;29;20100;-83
2023/10/02 11:01:34;;;;;;;0.40;0.40;;;;;;;;;;4927189;29;20147;-81
2023/10/02 11:04:14;;;;;;;0.30;0.30;;;;;;;;;;4906748;29;20045;-83
2023/10/02 11:06:50;;;;;;;0.30;0.30;;;;;;;;;;4893035;29;20038;-82
2023/10/02 11:09:43;;;;;;;0.30;0.30;;;;;;;;;;4877202;29;20301;-83
2023/10/02 11:12:26;;;;;;;0.30;0.30;;;;;;;;;;4896713;29;20017;-82
2023/10/02 11:14:54;;;;;;;0.40;0.40;;;;;;;;;;4936490;29;20012;-82
2023/10/02 11:17:32;;;;;;;0.73;0.73;;;;;;;;;;4936220;29;20032;-82
2023/10/02 11:20:07;;;;;;;0.30;0.30;;;;;;;;;;4921980;29;20032;-83
2023/10/02 11:22:52;;;;;;;0.45;0.45;;;;;;;;;;4931886;29;20453;-83
2023/10/02 11:25:19;;;;;;;0.60;0.60;;;;;;;;;;4932661;29;20040;-83
2023/10/02 11:27:58;;;;;;;0.30;0.30;;;;;;;;;;4934230;29;20073;-81
2023/10/02 11:30:31;;;;;;;0.30;0.30;;;;;;;;;;5001338;28;20022;-79
2023/10/02 11:33:07;;;;;;;0.30;0.30;;;;;;;;;;4973614;28;20032;-83
2023/10/02 11:35:38;;;;;;;0.38;0.38;;;;;;;;;;4902240;29;20501;-81
2023/10/02 11:38:07;;;;;;;0.40;0.40;;;;;;;;;;4919354;29;20144;-83
2023/10/02 11:40:36;;;;;;;0.30;0.30;;;;;;;;;;4897288;29;20037;-83
2023/10/02 11:43:02;;;;;;;0.30;0.30;;;;;;;;;;4913732;29;20492;-83
2023/10/02 11:45:32;;;;;;;0.30;0.30;;;;;;;;;;4903364;29;20041;-83
2023/10/02 11:48:27;;;;;;;0.30;0.30;;;;;;;;;;4894335;29;20025;-80
2023/10/02 11:50:57;;;;;;;0.40;0.40;;;;;;;;;;4893886;29;20064;-83
2023/10/02 11:53:29;;;;;;;0.30;0.30;;;;;;;;;;4894750;29;20563;-83
2023/10/02 11:56:20;;;;;;;0.30;0.30;;;;;;;;;;4914807;29;20048;-84
2023/10/02 11:59:31;;;;;;;0.30;0.30;;;;;;;;;;4914306;29;20028;-83
2023/10/02 12:02:45;;;;;;;0.28;0.28;;;;;;;;;;4894413;29;20081;-84
2023/10/02 12:05:57;;;;;;;0.30;0.30;;;;;;;;;;4885655;29;20106;-84
2023/10/02 12:09:17;;;;;;;0.20;0.20;;;;;;;;;;4878937;29;20276;-83
2023/10/02 12:12:14;;;;;;;0.30;0.30;;;;;;;;;;4897961;29;20025;-82
2023/10/02 12:14:42;;;;;;;0.30;0.30;;;;;;;;;;4880784;29;20056;-81
2023/10/02 12:17:23;;;;;;;0.30;0.30;;;;;;;;;;4882417;29;20065;-83
2023/10/02 12:20:00;;;;;;;0.30;0.30;;;;;;;;;;4899190;29;20082;-84
2023/10/02 12:22:46;;;;;;;0.40;0.40;;;;;;;;;;4882900;29;20041;-82
2023/10/02 12:26:08;;;;;;;0.30;0.30;;;;;;;;;;4881217;29;20040;-85
2023/10/02 12:29:10;;;;;;;0.30;0.30;;;;;;;;;;4860291;29;20072;-84
2023/10/02 12:32:09;;;;;;;0.30;0.30;;;;;;;;;;4879983;29;20038;-85
2023/10/02 12:34:42;;;;;;;0.30;0.30;;;;;;;;;;4861964;29;20078;-84
2023/10/02 12:37:22;;;;;;;0.30;0.30;;;;;;;;;;4847558;29;20018;-84
2023/10/02 12:40:31;;;;;;;0.30;0.30;;;;;;;;;;4865174;29;20032;-83
2023/10/02 12:43:35;;;;;;;0.30;0.30;;;;;;;;;;4879030;29;20033;-86
2023/10/02 12:46:52;;;;;;;0.30;0.30;;;;;;;;;;4842721;29;20039;-85
2023/10/02 12:50:10;;;;;;;0.30;0.30;;;;;;;;;;4811539;29;20027;-85
2023/10/02 12:53:21;;;;;;;0.40;0.40;;;;;;;;;;4756052;30;20041;-86
2023/10/02 12:56:30;;;;;;;0.30;0.30;;;;;;;;;;4748736;30;20025;-85
2023/10/02 13:02:52;;;;;;;0.20;0.20;;;;;;;;;;4779847;30;20047;-87
2023/10/02 13:08:55;;;;;;;0.30;0.30;;;;;;;;;;4760992;30;20079;-83
2023/10/02 13:11:58;;;;;;;0.40;0.40;;;;;;;;;;4771819;30;20070;-82
2023/10/02 13:14:54;;;;;;;0.30;0.30;;;;;;;;;;4756810;30;20048;-85
2023/10/02 13:17:42;;;;;;;0.30;0.30;;;;;;;;;;4767817;30;20048;-83
2023/10/02 13:20:40;;;;;;;0.40;0.40;;;;;;;;;;4763543;30;20131;-84
2023/10/02 13:23:33;;;;;;;0.30;0.30;;;;;;;;;;4774174;30;20049;-84
2023/10/02 13:26:36;;;;;;;0.30;0.30;;;;;;;;;;4822512;29;20038;-84
2023/10/02 13:29:09;;;;;;;0.40;0.40;;;;;;;;;;4850072;29;20043;-84
2023/10/02 13:32:06;;;;;;;0.40;0.40;;;;;;;;;;4862110;29;20069;-84
2023/10/02 13:34:59;;;;;;;0.30;0.30;;;;;;;;;;4848323;29;20143;-83
2023/10/02 13:38:13;;;;;;;0.30;0.30;;;;;;;;;;4861050;29;20047;-83
2023/10/02 13:41:14;;;;;;;0.30;0.30;;;;;;;;;;4823510;29;20447;-81
2023/10/02 13:44:19;;;;;;;0.30;0.30;;;;;;;;;;4838355;29;20038;-81
2023/10/02 13:47:11;;;;;;;0.30;0.30;;;;;;;;;;4845941;29;20066;-81
2023/10/02 13:50:05;;;;;;;0.30;0.30;;;;;;;;;;4829717;29;20045;-81
2023/10/02 13:52:57;;;;;;;0.30;0.30;;;;;;;;;;4882321;29;20040;-82
2023/10/02 13:55:30;;;;;;;0.30;0.30;;;;;;;;;;4858470;29;20038;-83
2023/10/02 13:58:22;;;;;;;0.30;0.30;;;;;;;;;;4886997;29;20040;-82
2023/10/02 14:01:20;;;;;;;0.32;0.32;;;;;;;;;;4865519;29;20033;-81
2023/10/02 14:04:19;;;;;;;0.30;0.30;;;;;;;;;;4882785;29;20096;-84
2023/10/02 14:06:48;;;;;;;0.30;0.30;;;;;;;;;;4892048;29;20068;-83
2023/10/02 14:16:07;;;;;;;0.30;0.30;;;;;;;;;;4878628;29;20040;-85
2023/10/02 14:22:00;;;;;;;0.30;0.30;;;;;;;;;;4877283;29;20436;-85
2023/10/02 14:28:36;;;;;;;0.30;0.30;;;;;;;;;;4856996;29;20029;-85
2023/10/02 14:35:00;;;;;;;0.30;0.30;;;;;;;;;;4898228;29;20039;-83
2023/10/02 14:37:55;;;;;;;0.30;0.30;;;;;;;;;;4912347;29;20397;-82
2023/10/02 14:43:59;;;;;;;0.30;0.30;;;;;;;;;;4858379;29;20028;-84
2023/10/02 14:47:15;;;;;;;0.30;0.30;;;;;;;;;;4795072;30;20042;-82
2023/10/02 14:50:13;;;;;;;0.40;0.40;;;;;;;;;;4804728;30;20040;-84
2023/10/02 14:53:11;;;;;;;0.30;0.30;;;;;;;;;;4787371;30;20055;-87
2023/10/02 14:59:33;;;;;;;0.30;0.30;;;;;;;;;;4857682;29;20060;-83
2023/10/02 15:02:54;;;;;;;0.30;0.30;;;;;;;;;;4857484;29;20034;-82
2023/10/02 15:05:29;;;;;;;0.30;0.30;;;;;;;;;;4831776;29;20030;-84
2023/10/02 15:08:00;;;;;;;0.30;0.30;;;;;;;;;;4834414;29;20047;-82
2023/10/02 15:10:51;;;;;;;0.30;0.30;;;;;;;;;;4821375;29;20043;-83
2023/10/02 15:13:46;;;;;;;0.30;0.30;;;;;;;;;;4854206;29;20066;-82
2023/10/02 15:16:56;;;;;;;0.30;0.30;;;;;;;;;;4856606;29;20038;-82
2023/10/02 15:20:00;;;;;;;0.30;0.30;;;;;;;;;;4841711;29;20502;-80
2023/10/02 15:29:30;;;;;;;0.30;0.30;;;;;;;;;;4781210;30;20047;-83
2023/10/02 15:35:57;;;;;;;0.35;0.35;;;;;;;;;;4776746;30;20042;-85
2023/10/02 15:42:07;;;;;;;0.38;0.38;;;;;;;;;;4811528;29;20052;-83
2023/10/02 15:45:23;;;;;;;0.30;0.30;;;;;;;;;;4791354;30;20023;-86
2023/10/02 15:57:56;;;;;;;0.40;0.40;;;;;;;;;;4790504;30;20042;-85
2023/10/02 16:14:06;;;;;;;0.40;0.40;;;;;;;;;;4850464;29;20067;-87
2023/10/02 16:17:09;;;;;;;0.38;0.38;;;;;;;;;;4863490;29;20038;-86
2023/10/02 16:23:11;;;;;;;0.40;0.40;;;;;;;;;;4848118;29;20124;-82
2023/10/02 16:29:18;;;;;;;0.40;0.40;;;;;;;;;;4836967;29;20033;-81
2023/10/02 16:32:46;;;;;;;0.40;0.40;;;;;;;;;;4852115;29;20045;-82
2023/10/02 16:36:03;;;;;;;0.30;0.30;;;;;;;;;;4881602;29;20035;-83
2023/10/02 16:39:13;;;;;;;0.40;0.40;;;;;;;;;;4825754;29;20031;-80
2023/10/02 16:41:54;;;;;;;0.45;0.45;;;;;;;;;;4817756;29;20106;-83
2023/10/02 16:44:39;;;;;;;0.40;0.40;;;;;;;;;;4858987;29;20054;-83
2023/10/02 16:47:36;;;;;;;0.40;0.40;;;;;;;;;;4862634;29;20030;-81
2023/10/02 16:53:13;;;;;;;0.40;0.40;;;;;;;;;;4827284;29;20050;-80
2023/10/02 16:56:00;;;;;;;0.40;0.40;;;;;;;;;;4822658;29;20069;-80
2023/10/02 16:59:00;;;;;;;0.47;0.47;;;;;;;;;;4809078;29;20039;-82
2023/10/02 17:01:53;;;;;;;0.40;0.40;;;;;;;;;;4897376;29;20045;-80
2023/10/02 17:04:39;;;;;;;0.30;0.30;;;;;;;;;;4916216;29;20039;-80
2023/10/02 17:07:49;;;;;;;0.50;0.50;;;;;;;;;;4894380;29;20064;-80
2023/10/02 17:10:53;;;;;;;0.40;0.40;;;;;;;;;;4875964;29;20037;-82
2023/10/02 17:13:25;;;;;;;0.40;0.40;;;;;;;;;;4858801;29;20114;-82
2023/10/02 17:16:11;;;;;;;0.40;0.40;;;;;;;;;;4860576;29;20438;-82
2023/10/02 17:18:49;;;;;;;0.40;0.40;;;;;;;;;;4860322;29;20454;-80
2023/10/02 17:24:43;;;;;;;0.45;0.45;;;;;;;;;;4908769;29;20038;-83
2023/10/02 17:27:30;;;;;;;0.40;0.40;;;;;;;;;;4918963;29;20035;-81
2023/10/02 17:30:36;;;;;;;0.40;0.40;;;;;;;;;;4863382;29;20037;-81
2023/10/02 17:36:08;;;;;;;0.40;0.40;;;;;;;;;;4844963;29;20026;-82
2023/10/02 17:39:07;;;;;;;0.30;0.30;;;;;;;;;;4861635;29;20059;-81
2023/10/02 17:41:53;;;;;;;0.40;0.40;;;;;;;;;;4916469;29;20033;-82
2023/10/02 17:44:49;;;;;;;0.40;0.40;;;;;;;;;;4916196;29;20060;-80
2023/10/02 17:47:52;;;;;;;0.40;0.40;;;;;;;;;;4898167;29;20029;-80
2023/10/02 17:51:00;;;;;;;0.40;0.40;;;;;;;;;;4899684;29;20025;-82
2023/10/02 17:54:06;;;;;;;0.40;0.40;;;;;;;;;;4861726;29;20095;-83
2023/10/02 17:56:40;;;;;;;0.40;0.40;;;;;;;;;;4845778;29;20038;-80
2023/10/02 17:59:07;;;;;;;0.40;0.40;;;;;;;;;;4841456;29;20040;-79
2023/10/02 18:01:34;;;;;;;0.40;0.40;;;;;;;;;;4869406;29;20037;-81
2023/10/02 18:04:00;;;;;;;0.40;0.40;;;;;;;;;;4867909;29;20677;-79
2023/10/02 18:06:38;;;;;;;0.40;0.40;;;;;;;;;;4856329;29;20053;-84
2023/10/02 18:12:38;;;;;;;0.47;0.47;;;;;;;;;;4885680;29;20056;-87
2023/10/02 19:03:30;;;;;;;0.40;0.40;;;;;;;;;;4959490;29;20019;-85
2023/10/02 19:25:19;;;;;;;0.50;0.50;;;;;;;;;;5082265;28;20020;-86
2023/10/02 19:36:56;;;;;;;0.50;0.50;;;;;;;;;;5061584;28;20040;-86
2023/10/02 19:39:49;;;;;;;0.40;0.40;;;;;;;;;;5045066;28;20047;-85
2023/10/02 19:43:10;;;;;;;0.43;0.43;;;;;;;;;;5001991;28;20019;-86
2023/10/02 20:08:37;;;;;;;0.60;0.60;;;;;;;;;;4981387;28;20064;-82
2023/10/02 20:12:08;;;;;;;0.60;0.60;;;;;;;;;;4961950;28;20055;-82
2023/10/02 20:15:02;;;;;;;0.47;0.47;;;;;;;;;;4921169;29;20131;-82
2023/10/02 20:18:42;;;;;;;0.50;0.50;;;;;;;;;;4881441;29;20041;-80
2023/10/02 20:21:52;;;;;;;0.40;0.40;;;;;;;;;;4847819;29;20062;-81
2023/10/02 20:24:30;;;;;;;0.50;0.50;;;;;;;;;;4851005;29;20038;-82
2023/10/02 20:31:03;;;;;;;0.50;0.50;;;;;;;;;;4847262;29;20153;-82
2023/10/02 20:33:58;;;;;;;0.50;0.50;;;;;;;;;;4846279;29;20068;-81
2023/10/02 20:36:49;;;;;;;0.50;0.50;;;;;;;;;;4844374;29;20054;-81
2023/10/02 20:39:35;;;;;;;0.50;0.50;;;;;;;;;;4818830;29;20019;-82
2023/10/02 20:44:56;;;;;;;0.57;0.57;;;;;;;;;;5080975;22;20037;-88
2023/10/02 21:31:49;;;;;;;0.50;0.50;;;;;;;;;;4998707;28;20078;-82
2023/10/02 21:35:00;;;;;;;0.43;0.43;;;;;;;;;;5124451;22;20053;-83
2023/10/02 21:38:13;;;;;;;0.60;0.60;;;;;;;;;;5080175;28;20052;-83
2023/10/02 21:40:40;;;;;;;0.52;0.52;;;;;;;;;;5061357;28;20347;-82
2023/10/02 21:43:06;;;;;;;0.55;0.55;;;;;;;;;;5057091;28;20044;-81
2023/10/02 21:45:35;;;;;;;0.60;0.60;;;;;;;;;;5056583;28;20033;-81
2023/10/02 21:48:08;;;;;;;0.60;0.60;;;;;;;;;;5042458;28;20048;-81
2023/10/02 21:50:55;;;;;;;0.50;0.50;;;;;;;;;;5002744;28;20026;-81
2023/10/02 21:53:25;;;;;;;0.50;0.50;;;;;;;;;;4984972;28;20041;-82
2023/10/02 21:55:55;;;;;;;0.50;0.50;;;;;;;;;;4974012;29;20035;-80
2023/10/02 21:58:22;;;;;;;0.50;0.50;;;;;;;;;;4955894;29;20086;-81
2023/10/02 22:01:18;;;;;;;0.50;0.50;;;;;;;;;;4943314;29;20619;-80
2023/10/02 22:03:52;;;;;;;0.85;0.85;;;;;;;;;;4938036;29;20059;-82
2023/10/02 22:06:21;;;;;;;0.60;0.60;;;;;;;;;;4954136;29;20067;-80
2023/10/02 22:08:50;;;;;;;0.70;0.65;;;;;;;;;;4937220;29;20141;-80
2023/10/02 22:14:24;;;;;;;0.50;0.50;;;;;;;;;;4920978;29;20068;-84
2023/10/02 22:17:13;;;;;;;0.65;0.60;;;;;;;;;;4905595;29;20046;-83
2023/10/02 22:19:43;;;;;;;0.50;0.50;;;;;;;;;;4913604;29;20042;-80
2023/10/02 22:22:10;;;;;;;0.50;0.50;;;;;;;;;;4905552;29;20037;-80
2023/10/02 22:24:36;;;;;;;0.77;0.70;;;;;;;;;;4917315;29;20048;-81
2023/10/02 22:27:02;;;;;;;0.60;0.60;;;;;;;;;;4926825;29;20064;-80
2023/10/02 22:29:29;;;;;;;0.50;0.50;;;;;;;;;;4928877;29;20044;-80
2023/10/02 22:31:56;;;;;;;0.60;0.60;;;;;;;;;;4928960;29;20040;-81
2023/10/02 22:53:40;;;;;;;0.60;0.60;;;;;;;;;;4954599;29;20114;-79
2023/10/02 22:56:09;;;;;;;0.60;0.60;;;;;;;;;;4929800;29;20042;-79
2023/10/02 22:58:36;;;;;;;0.50;0.50;;;;;;;;;;4914633;29;20032;-79
2023/10/02 23:01:04;;;;;;;0.60;0.60;;;;;;;;;;4940879;29;20125;-80
2023/10/02 23:03:32;;;;;;;0.60;0.60;;;;;;;;;;4950295;29;20041;-80
2023/10/02 23:05:59;;;;;;;0.60;0.60;;;;;;;;;;4950265;29;20035;-80
2023/10/02 23:08:27;;;;;;;0.60;0.60;;;;;;;;;;4950639;29;20036;-80
2023/10/02 23:10:55;;;;;;;0.50;0.50;;;;;;;;;;4950545;29;20526;-80
2023/10/02 23:13:21;;;;;;;0.50;0.50;;;;;;;;;;4951377;29;20054;-79
2023/10/02 23:15:47;;;;;;;0.50;0.50;;;;;;;;;;4950765;29;20483;-80
2023/10/02 23:18:13;;;;;;;0.50;0.50;;;;;;;;;;4949660;29;20082;-80
2023/10/02 23:20:41;;;;;;;0.50;0.50;;;;;;;;;;4965961;29;20040;-79
2023/10/02 23:23:07;;;;;;;0.52;0.52;;;;;;;;;;4990848;28;20036;-80
2023/10/02 23:25:35;;;;;;;0.50;0.50;;;;;;;;;;5048069;28;20017;-80
2023/10/02 23:28:02;;;;;;;0.50;0.50;;;;;;;;;;5049284;28;20033;-79
2023/10/02 23:30:28;;;;;;;0.50;0.50;;;;;;;;;;5048575;28;20025;-80
2023/10/02 23:32:55;;;;;;;0.52;0.52;;;;;;;;;;5048593;28;20055;-80
2023/10/02 23:35:23;;;;;;;0.50;0.50;;;;;;;;;;5049134;28;20032;-80
2023/10/02 23:37:49;;;;;;;0.60;0.60;;;;;;;;;;5047184;28;20133;-80
2023/10/02 23:40:20;;;;;;;0.65;0.60;;;;;;;;;;5046410;28;20025;-79
2023/10/02 23:42:47;;;;;;;0.70;0.70;;;;;;;;;;5048864;28;20025;-80
2023/10/02 23:45:17;;;;;;;0.60;0.60;;;;;;;;;;5047827;28;20112;-80
2023/10/02 23:47:44;;;;;;;0.60;0.60;;;;;;;;;;5049018;28;20509;-80
2023/10/02 23:50:17;;;;;;;0.43;0.43;;;;;;;;;;5048586;28;20036;-80
2023/10/02 23:52:47;;;;;;;0.60;0.60;;;;;;;;;;5047850;28;20064;-80
2023/10/02 23:55:28;;;;;;;0.70;0.60;;;;;;;;;;5047871;28;20021;-79
2023/10/02 23:57:54;;;;;;;0.73;0.60;;;;;;;;;;5047823;28;20353;-80
